sensor_id;sensor_type;location;lat;lon;timestamp;pressure;altitude;pressure_sealevel;temperature;humidity
65880;BME280;52661;51.364;6.054;2023-02-28T00:00:23;102638.69;;;0.64;100.00
65880;BME280;52661;51.364;6.054;2023-02-28T00:02:49;102631.97;;;0.72;100.00
65880;BME280;52661;51.364;6.054;2023-02-28T00:05:17;102637.84;;;0.74;100.00
65880;BME280;52661;51.364;6.054;2023-02-28T00:07:43;102640.75;;;0.82;100.00
65880;BME280;52661;51.364;6.054;2023-02-28T00:10:11;102644.25;;;0.73;100.00
65880;BME280;52661;51.364;6.054;2023-02-28T00:12:37;102642.63;;;0.77;100.00
65880;BME280;52661;51.364;6.054;2023-02-28T00:15:08;102642.13;;;0.75;100.00
65880;BME280;52661;51.364;6.054;2023-02-28T00:17:34;102633.84;;;0.71;100.00
65880;BME280;52661;51.364;6.054;2023-02-28T00:19:59;102630.38;;;0.66;100.00
65880;BME280;52661;51.364;6.054;2023-02-28T00:22:28;102629.06;;;0.63;100.00
65880;BME280;52661;51.364;6.054;2023-02-28T00:24:53;102633.41;;;0.54;100.00
65880;BME280;52661;51.364;6.054;2023-02-28T00:27:19;102633.16;;;0.51;100.00
65880;BME280;52661;51.364;6.054;2023-02-28T00:29:46;102639.00;;;0.47;100.00
65880;BME280;52661;51.364;6.054;2023-02-28T00:32:11;102641.72;;;0.42;100.00
65880;BME280;52661;51.364;6.054;2023-02-28T00:34:37;102646.84;;;0.29;100.00
65880;BME280;52661;51.364;6.054;2023-02-28T00:37:07;102650.53;;;0.38;100.00
65880;BME280;52661;51.364;6.054;2023-02-28T00:39:36;102644.19;;;0.29;100.00
65880;BME280;52661;51.364;6.054;2023-02-28T00:42:02;102655.38;;;0.31;100.00
65880;BME280;52661;51.364;6.054;2023-02-28T00:44:28;102646.31;;;0.32;100.00
65880;BME280;52661;51.364;6.054;2023-02-28T00:46:54;102651.31;;;0.43;100.00
65880;BME280;52661;51.364;6.054;2023-02-28T00:49:20;102652.16;;;0.39;100.00
65880;BME280;52661;51.364;6.054;2023-02-28T00:51:46;102651.31;;;0.43;100.00
65880;BME280;52661;51.364;6.054;2023-02-28T00:54:12;102651.09;;;0.35;100.00
65880;BME280;52661;51.364;6.054;2023-02-28T00:56:37;102650.28;;;0.29;100.00
65880;BME280;52661;51.364;6.054;2023-02-28T00:59:02;102659.41;;;0.23;100.00
65880;BME280;52661;51.364;6.054;2023-02-28T01:01:28;102658.34;;;0.19;100.00
65880;BME280;52661;51.364;6.054;2023-02-28T01:03:53;102656.47;;;0.20;100.00
65880;BME280;52661;51.364;6.054;2023-02-28T01:06:18;102662.38;;;0.17;100.00
65880;BME280;52661;51.364;6.054;2023-02-28T01:08:44;102667.97;;;0.25;100.00
65880;BME280;52661;51.364;6.054;2023-02-28T01:11:11;102662.88;;;0.29;100.00
65880;BME280;52661;51.364;6.054;2023-02-28T01:13:37;102669.03;;;0.24;100.00
65880;BME280;52661;51.364;6.054;2023-02-28T01:16:03;102667.66;;;0.22;100.00
65880;BME280;52661;51.364;6.054;2023-02-28T01:18:28;102669.06;;;0.14;100.00
65880;BME280;52661;51.364;6.054;2023-02-28T01:20:54;102661.00;;;0.19;100.00
65880;BME280;52661;51.364;6.054;2023-02-28T01:23:21;102664.47;;;0.20;100.00
65880;BME280;52661;51.364;6.054;2023-02-28T01:25:48;102666.59;;;0.28;100.00
65880;BME280;52661;51.364;6.054;2023-02-28T01:28:13;102668.22;;;0.24;100.00
65880;BME280;52661;51.364;6.054;2023-02-28T01:30:38;102663.44;;;0.16;100.00
65880;BME280;52661;51.364;6.054;2023-02-28T01:33:04;102655.69;;;0.04;100.00
65880;BME280;52661;51.364;6.054;2023-02-28T01:35:32;102657.59;;;-0.02;100.00
65880;BME280;52661;51.364;6.054;2023-02-28T01:37:57;102655.97;;;0.08;100.00
65880;BME280;52661;51.364;6.054;2023-02-28T01:40:23;102655.69;;;0.04;100.00
65880;BME280;52661;51.364;6.054;2023-02-28T01:42:48;102653.84;;;0.10;100.00
65880;BME280;52661;51.364;6.054;2023-02-28T01:47:50;102649.09;;;-0.19;100.00
65880;BME280;52661;51.364;6.054;2023-02-28T01:50:23;102651.47;;;-0.32;100.00
65880;BME280;52661;51.364;6.054;2023-02-28T01:52:50;102649.34;;;-0.30;100.00
65880;BME280;52661;51.364;6.054;2023-02-28T01:55:19;102645.88;;;-0.21;100.00
65880;BME280;52661;51.364;6.054;2023-02-28T01:57:52;102645.84;;;-0.11;100.00
65880;BME280;52661;51.364;6.054;2023-02-28T02:00:23;102635.47;;;-0.12;100.00
65880;BME280;52661;51.364;6.054;2023-02-28T02:02:51;102634.63;;;-0.03;100.00
65880;BME280;52661;51.364;6.054;2023-02-28T02:05:27;102631.16;;;0.02;100.00
65880;BME280;52661;51.364;6.054;2023-02-28T02:08:01;102630.34;;;0.02;100.00
65880;BME280;52661;51.364;6.054;2023-02-28T02:10:39;102621.03;;;-0.01;100.00
65880;BME280;52661;51.364;6.054;2023-02-28T02:16:10;102619.16;;;-0.01;100.00
65880;BME280;52661;51.364;6.054;2023-02-28T02:33:03;102616.53;;;-0.31;100.00
65880;BME280;52661;51.364;6.054;2023-02-28T02:38:19;102622.94;;;-0.47;100.00
65880;BME280;52661;51.364;6.054;2023-02-28T02:43:52;102618.69;;;-0.38;100.00
65880;BME280;52661;51.364;6.054;2023-02-28T02:46:42;102620.00;;;-0.35;100.00
65880;BME280;52661;51.364;6.054;2023-02-28T02:49:12;102617.06;;;-0.39;100.00
65880;BME280;52661;51.364;6.054;2023-02-28T02:51:41;102611.22;;;-0.41;100.00
65880;BME280;52661;51.364;6.054;2023-02-28T02:54:13;102614.94;;;-0.42;100.00
65880;BME280;52661;51.364;6.054;2023-02-28T02:56:43;102625.34;;;-0.40;100.00
65880;BME280;52661;51.364;6.054;2023-02-28T02:59:13;102617.63;;;-0.37;100.00
65880;BME280;52661;51.364;6.054;2023-02-28T03:01:40;102622.66;;;-0.35;100.00
65880;BME280;52661;51.364;6.054;2023-02-28T03:04:11;102629.34;;;-0.38;100.00
65880;BME280;52661;51.364;6.054;2023-02-28T03:06:39;102633.88;;;-0.38;100.00
65880;BME280;52661;51.364;6.054;2023-02-28T03:09:04;102627.50;;;-0.47;100.00
65880;BME280;52661;51.364;6.054;2023-02-28T03:11:30;102627.22;;;-0.46;100.00
65880;BME280;52661;51.364;6.054;2023-02-28T03:14:18;102638.13;;;-0.58;100.00
65880;BME280;52661;51.364;6.054;2023-02-28T03:30:50;102624.81;;;-0.63;100.00
65880;BME280;52661;51.364;6.054;2023-02-28T03:33:23;102630.66;;;-0.61;100.00
65880;BME280;52661;51.364;6.054;2023-02-28T03:35:59;102629.88;;;-0.56;100.00
65880;BME280;52661;51.364;6.054;2023-02-28T03:38:50;102629.06;;;-0.57;100.00
65880;BME280;52661;51.364;6.054;2023-02-28T03:41:29;102622.41;;;-0.49;100.00
65880;BME280;52661;51.364;6.054;2023-02-28T03:44:05;102622.41;;;-0.49;100.00
65880;BME280;52661;51.364;6.054;2023-02-28T03:46:36;102614.16;;;-0.53;100.00
65880;BME280;52661;51.364;6.054;2023-02-28T03:49:17;102625.59;;;-0.57;100.00
65880;BME280;52661;51.364;6.054;2023-02-28T03:51:45;102624.25;;;-0.65;100.00
65880;BME280;52661;51.364;6.054;2023-02-28T03:54:15;102620.81;;;-0.70;100.00
65880;BME280;52661;51.364;6.054;2023-02-28T03:59:25;102620.00;;;-0.91;100.00
65880;BME280;52661;51.364;6.054;2023-02-28T04:01:51;102616.81;;;-0.88;100.00
65880;BME280;52661;51.364;6.054;2023-02-28T04:04:17;102618.13;;;-0.85;100.00
65880;BME280;52661;51.364;6.054;2023-02-28T04:06:44;102612.00;;;-0.96;100.00
65880;BME280;52661;51.364;6.054;2023-02-28T04:09:12;102605.84;;;-0.86;100.00
65880;BME280;52661;51.364;6.054;2023-02-28T04:11:40;102610.91;;;-0.90;100.00
65880;BME280;52661;51.364;6.054;2023-02-28T04:14:08;102613.59;;;-0.90;100.00
65880;BME280;52661;51.364;6.054;2023-02-28T04:16:36;102612.00;;;-0.81;100.00
65880;BME280;52661;51.364;6.054;2023-02-28T04:19:04;102614.94;;;-0.82;100.00
65880;BME280;52661;51.364;6.054;2023-02-28T04:21:32;102608.78;;;-0.83;100.00
65880;BME280;52661;51.364;6.054;2023-02-28T04:23:58;102608.00;;;-0.88;100.00
65880;BME280;52661;51.364;6.054;2023-02-28T04:26:31;102618.69;;;-0.83;100.00
65880;BME280;52661;51.364;6.054;2023-02-28T04:28:57;102614.69;;;-0.81;100.00
65880;BME280;52661;51.364;6.054;2023-02-28T04:31:23;102619.19;;;-0.96;100.00
65880;BME280;52661;51.364;6.054;2023-02-28T04:33:49;102615.69;;;-1.07;100.00
65880;BME280;52661;51.364;6.054;2023-02-28T04:36:14;102623.09;;;-1.29;100.00
65880;BME280;52661;51.364;6.054;2023-02-28T04:38:43;102619.63;;;-1.30;100.00
65880;BME280;52661;51.364;6.054;2023-02-28T04:41:08;102621.50;;;-1.25;100.00
65880;BME280;52661;51.364;6.054;2023-02-28T04:43:34;102631.38;;;-1.21;100.00
65880;BME280;52661;51.364;6.054;2023-02-28T04:46:02;102635.38;;;-1.18;100.00
65880;BME280;52661;51.364;6.054;2023-02-28T04:48:28;102637.78;;;-1.22;100.00
65880;BME280;52661;51.364;6.054;2023-02-28T04:50:54;102642.34;;;-1.07;100.00
65880;BME280;52661;51.364;6.054;2023-02-28T04:53:20;102634.91;;;-1.00;100.00
65880;BME280;52661;51.364;6.054;2023-02-28T04:55:45;102637.03;;;-0.97;100.00
65880;BME280;52661;51.364;6.054;2023-02-28T04:58:11;102633.56;;;-1.03;100.00
65880;BME280;52661;51.364;6.054;2023-02-28T05:00:37;102632.78;;;-0.98;100.00
65880;BME280;52661;51.364;6.054;2023-02-28T05:03:02;102624.22;;;-1.00;100.00
65880;BME280;52661;51.364;6.054;2023-02-28T05:05:28;102624.25;;;-1.05;100.00
65880;BME280;52661;51.364;6.054;2023-02-28T05:07:53;102627.41;;;-1.08;100.00
65880;BME280;52661;51.364;6.054;2023-02-28T05:10:21;102624.47;;;-1.12;100.00
65880;BME280;52661;51.364;6.054;2023-02-28T05:12:46;102626.88;;;-1.20;100.00
65880;BME280;52661;51.364;6.054;2023-02-28T05:15:14;102634.56;;;-1.19;100.00
65880;BME280;52661;51.364;6.054;2023-02-28T05:17:39;102630.06;;;-1.23;100.00
65880;BME280;52661;51.364;6.054;2023-02-28T05:20:06;102627.38;;;-1.28;100.00
65880;BME280;52661;51.364;6.054;2023-02-28T05:22:31;102632.94;;;-1.30;100.00
65880;BME280;52661;51.364;6.054;2023-02-28T05:24:57;102641.50;;;-1.28;100.00
65880;BME280;52661;51.364;6.054;2023-02-28T05:27:22;102640.94;;;-1.30;100.00
65880;BME280;52661;51.364;6.054;2023-02-28T05:29:48;102651.31;;;-1.38;100.00
65880;BME280;52661;51.364;6.054;2023-02-28T05:32:14;102639.63;;;-1.27;100.00
65880;BME280;52661;51.364;6.054;2023-02-28T05:34:40;102646.00;;;-1.33;100.00
65880;BME280;52661;51.364;6.054;2023-02-28T05:37:06;102641.47;;;-1.33;100.00
65880;BME280;52661;51.364;6.054;2023-02-28T05:39:35;102658.28;;;-1.22;100.00
65880;BME280;52661;51.364;6.054;2023-02-28T05:42:01;102659.34;;;-1.28;100.00
65880;BME280;52661;51.364;6.054;2023-02-28T05:44:26;102659.59;;;-1.30;100.00
65880;BME280;52661;51.364;6.054;2023-02-28T05:46:51;102658.75;;;-1.40;100.00
65880;BME280;52661;51.364;6.054;2023-02-28T05:49:17;102657.16;;;-1.36;100.00
65880;BME280;52661;51.364;6.054;2023-02-28T05:51:42;102662.81;;;-1.28;100.00
65880;BME280;52661;51.364;6.054;2023-02-28T05:54:07;102664.41;;;-1.27;100.00
65880;BME280;52661;51.364;6.054;2023-02-28T05:56:33;102665.44;;;-1.33;100.00
65880;BME280;52661;51.364;6.054;2023-02-28T05:59:00;102663.81;;;-1.39;100.00
65880;BME280;52661;51.364;6.054;2023-02-28T06:04:01;102653.16;;;-1.39;100.00
65880;BME280;52661;51.364;6.054;2023-02-28T06:06:28;102655.03;;;-1.39;100.00
65880;BME280;52661;51.364;6.054;2023-02-28T06:08:54;102654.53;;;-1.31;100.00
65880;BME280;52661;51.364;6.054;2023-02-28T06:11:19;102654.22;;;-1.40;100.00
65880;BME280;52661;51.364;6.054;2023-02-28T06:13:45;102653.69;;;-1.42;100.00
65880;BME280;52661;51.364;6.054;2023-02-28T06:16:11;102656.88;;;-1.45;100.00
65880;BME280;52661;51.364;6.054;2023-02-28T06:18:37;102657.16;;;-1.41;100.00
65880;BME280;52661;51.364;6.054;2023-02-28T06:21:02;102664.63;;;-1.38;100.00
65880;BME280;52661;51.364;6.054;2023-02-28T06:23:28;102660.59;;;-1.46;100.00
65880;BME280;52661;51.364;6.054;2023-02-28T06:25:53;102663.22;;;-1.51;100.00
65880;BME280;52661;51.364;6.054;2023-02-28T06:28:21;102668.56;;;-1.51;100.00
65880;BME280;52661;51.364;6.054;2023-02-28T06:30:46;102667.53;;;-1.45;100.00
65880;BME280;52661;51.364;6.054;2023-02-28T06:33:11;102670.97;;;-1.44;100.00
65880;BME280;52661;51.364;6.054;2023-02-28T06:35:37;102672.34;;;-1.42;100.00
65880;BME280;52661;51.364;6.054;2023-02-28T06:38:03;102673.63;;;-1.44;100.00
65880;BME280;52661;51.364;6.054;2023-02-28T06:40:29;102680.31;;;-1.42;100.00
65880;BME280;52661;51.364;6.054;2023-02-28T06:42:57;102681.16;;;-1.31;100.00
65880;BME280;52661;51.364;6.054;2023-02-28T06:45:22;102684.84;;;-1.42;100.00
65880;BME280;52661;51.364;6.054;2023-02-28T06:47:47;102684.59;;;-1.36;100.00
65880;BME280;52661;51.364;6.054;2023-02-28T06:50:17;102690.50;;;-1.34;100.00
65880;BME280;52661;51.364;6.054;2023-02-28T06:52:45;102691.06;;;-1.27;100.00
65880;BME280;52661;51.364;6.054;2023-02-28T06:55:11;102682.25;;;-1.22;100.00
65880;BME280;52661;51.364;6.054;2023-02-28T06:57:36;102696.38;;;-1.22;100.00
65880;BME280;52661;51.364;6.054;2023-02-28T07:00:07;102692.66;;;-1.21;100.00
65880;BME280;52661;51.364;6.054;2023-02-28T07:02:34;102703.59;;;-1.17;100.00
65880;BME280;52661;51.364;6.054;2023-02-28T07:04:59;102698.53;;;-1.19;100.00
65880;BME280;52661;51.364;6.054;2023-02-28T07:07:24;102709.75;;;-1.12;100.00
65880;BME280;52661;51.364;6.054;2023-02-28T07:09:50;102705.22;;;-1.16;100.00
65880;BME280;52661;51.364;6.054;2023-02-28T07:12:15;102703.31;;;-1.16;100.00
65880;BME280;52661;51.364;6.054;2023-02-28T07:14:40;102708.16;;;-1.08;100.00
65880;BME280;52661;51.364;6.054;2023-02-28T07:17:10;102708.44;;;-1.04;100.00
65880;BME280;52661;51.364;6.054;2023-02-28T07:19:40;102707.63;;;-1.05;100.00
65880;BME280;52661;51.364;6.054;2023-02-28T07:22:06;102709.50;;;-1.00;100.00
65880;BME280;52661;51.364;6.054;2023-02-28T07:24:31;102709.25;;;-0.93;100.00
65880;BME280;52661;51.364;6.054;2023-02-28T07:26:57;102712.75;;;-0.88;100.00
65880;BME280;52661;51.364;6.054;2023-02-28T07:29:22;102713.28;;;-0.86;100.00
65880;BME280;52661;51.364;6.054;2023-02-28T07:31:47;102715.69;;;-0.79;100.00
65880;BME280;52661;51.364;6.054;2023-02-28T07:34:15;102707.97;;;-0.76;100.00
65880;BME280;52661;51.364;6.054;2023-02-28T07:36:40;102724.78;;;-0.75;100.00
65880;BME280;52661;51.364;6.054;2023-02-28T07:39:06;102723.19;;;-0.71;100.00
65880;BME280;52661;51.364;6.054;2023-02-28T07:41:31;102719.19;;;-0.69;100.00
65880;BME280;52661;51.364;6.054;2023-02-28T07:43:59;102714.16;;;-0.65;100.00
65880;BME280;52661;51.364;6.054;2023-02-28T07:46:25;102728.56;;;-0.56;100.00
65880;BME280;52661;51.364;6.054;2023-02-28T07:48:50;102723.50;;;-0.53;100.00
65880;BME280;52661;51.364;6.054;2023-02-28T07:51:16;102721.63;;;-0.47;100.00
65880;BME280;52661;51.364;6.054;2023-02-28T07:53:41;102720.03;;;-0.18;100.00
65880;BME280;52661;51.364;6.054;2023-02-28T07:56:07;102733.41;;;-0.23;100.00
65880;BME280;52661;51.364;6.054;2023-02-28T07:58:32;102737.94;;;-0.23;100.00
65880;BME280;52661;51.364;6.054;2023-02-28T08:01:08;102736.06;;;-0.23;100.00
65880;BME280;52661;51.364;6.054;2023-02-28T08:03:33;102736.88;;;-0.17;100.00
65880;BME280;52661;51.364;6.054;2023-02-28T08:05:59;102730.22;;;-0.15;100.00
65880;BME280;52661;51.364;6.054;2023-02-28T08:08:24;102728.84;;;-0.07;100.00
65880;BME280;52661;51.364;6.054;2023-02-28T08:10:54;102736.09;;;-0.08;100.00
65880;BME280;52661;51.364;6.054;2023-02-28T08:13:19;102735.53;;;0.00;100.00
65880;BME280;52661;51.364;6.054;2023-02-28T08:15:44;102728.59;;;0.05;100.00
65880;BME280;52661;51.364;6.054;2023-02-28T08:18:12;102735.25;;;0.12;100.00
65880;BME280;52661;51.364;6.054;2023-02-28T08:20:37;102734.97;;;0.19;100.00
65880;BME280;52661;51.364;6.054;2023-02-28T08:23:02;102732.06;;;0.25;100.00
65880;BME280;52661;51.364;6.054;2023-02-28T08:25:28;102727.75;;;0.34;100.00
65880;BME280;52661;51.364;6.054;2023-02-28T08:27:53;102727.47;;;0.41;100.00
65880;BME280;52661;51.364;6.054;2023-02-28T08:30:18;102733.31;;;0.48;100.00
65880;BME280;52661;51.364;6.054;2023-02-28T08:32:44;102737.59;;;0.54;99.03
65880;BME280;52661;51.364;6.054;2023-02-28T08:35:09;102737.03;;;0.62;97.79
65880;BME280;52661;51.364;6.054;2023-02-28T08:37:35;102732.47;;;0.68;94.57
65880;BME280;52661;51.364;6.054;2023-02-28T08:40:00;102740.19;;;0.79;96.74
65880;BME280;52661;51.364;6.054;2023-02-28T08:42:26;102740.16;;;0.89;97.37
65880;BME280;52661;51.364;6.054;2023-02-28T08:44:51;102745.75;;;0.93;96.01
65880;BME280;52661;51.364;6.054;2023-02-28T08:47:17;102737.97;;;0.96;96.19
65880;BME280;52661;51.364;6.054;2023-02-28T08:49:42;102738.75;;;1.02;96.41
65880;BME280;52661;51.364;6.054;2023-02-28T08:52:07;102737.06;;;1.16;96.49
65880;BME280;52661;51.364;6.054;2023-02-28T08:54:33;102729.28;;;1.25;90.50
65880;BME280;52661;51.364;6.054;2023-02-28T08:56:59;102721.22;;;1.30;90.16
65880;BME280;52661;51.364;6.054;2023-02-28T08:59:24;102725.97;;;1.43;84.11
65880;BME280;52661;51.364;6.054;2023-02-28T09:01:49;102732.06;;;1.48;83.07
65880;BME280;52661;51.364;6.054;2023-02-28T09:04:15;102722.38;;;1.58;82.88
65880;BME280;52661;51.364;6.054;2023-02-28T09:06:40;102721.72;;;1.71;83.89
65880;BME280;52661;51.364;6.054;2023-02-28T09:09:06;102719.53;;;1.78;79.30
65880;BME280;52661;51.364;6.054;2023-02-28T09:11:33;102721.13;;;1.84;79.67
65880;BME280;52661;51.364;6.054;2023-02-28T09:13:59;102720.50;;;1.92;76.35
65880;BME280;52661;51.364;6.054;2023-02-28T09:16:26;102723.41;;;1.95;75.24
65880;BME280;52661;51.364;6.054;2023-02-28T09:18:51;102720.34;;;2.07;73.05
65880;BME280;52661;51.364;6.054;2023-02-28T09:21:18;102722.44;;;2.15;70.49
65880;BME280;52661;51.364;6.054;2023-02-28T09:23:45;102718.69;;;2.16;69.21
65880;BME280;52661;51.364;6.054;2023-02-28T09:26:16;102718.69;;;2.16;69.42
65880;BME280;52661;51.364;6.054;2023-02-28T09:28:41;102717.50;;;2.27;71.78
65880;BME280;52661;51.364;6.054;2023-02-28T09:31:12;102729.78;;;2.28;67.74
65880;BME280;52661;51.364;6.054;2023-02-28T09:33:37;102717.56;;;2.46;70.16
65880;BME280;52661;51.364;6.054;2023-02-28T09:36:03;102722.06;;;2.51;68.54
65880;BME280;52661;51.364;6.054;2023-02-28T09:38:28;102724.97;;;2.54;67.12
65880;BME280;52661;51.364;6.054;2023-02-28T09:41:03;102711.69;;;2.68;70.00
65880;BME280;52661;51.364;6.054;2023-02-28T09:43:35;102720.53;;;2.68;68.27
65880;BME280;52661;51.364;6.054;2023-02-28T09:48:32;102705.75;;;2.71;69.03
65880;BME280;52661;51.364;6.054;2023-02-28T09:51:12;102714.75;;;2.80;64.67
65880;BME280;52661;51.364;6.054;2023-02-28T09:53:40;102714.34;;;2.91;67.80
65880;BME280;52661;51.364;6.054;2023-02-28T09:56:12;102706.53;;;2.95;65.19
65880;BME280;52661;51.364;6.054;2023-02-28T09:58:54;102709.72;;;2.97;63.71
65880;BME280;52661;51.364;6.054;2023-02-28T10:01:43;102707.19;;;3.06;65.23
65880;BME280;52661;51.364;6.054;2023-02-28T10:09:55;102709.38;;;3.22;62.75
65880;BME280;52661;51.364;6.054;2023-02-28T10:12:25;102710.47;;;3.40;64.52
65880;BME280;52661;51.364;6.054;2023-02-28T10:14:52;102710.97;;;3.42;61.78
65880;BME280;52661;51.364;6.054;2023-02-28T10:17:36;102709.78;;;3.29;60.79
65880;BME280;52661;51.364;6.054;2023-02-28T10:20:07;102718.06;;;3.33;60.17
65880;BME280;52661;51.364;6.054;2023-02-28T10:22:49;102709.94;;;3.38;61.31
65880;BME280;52661;51.364;6.054;2023-02-28T10:25:23;102704.44;;;3.48;61.55
65880;BME280;52661;51.364;6.054;2023-02-28T10:27:50;102705.16;;;3.54;60.42
65880;BME280;52661;51.364;6.054;2023-02-28T10:30:18;102712.03;;;3.41;61.36
65880;BME280;52661;51.364;6.054;2023-02-28T10:32:49;102703.47;;;3.02;60.27
65880;BME280;52661;51.364;6.054;2023-02-28T10:35:21;102705.00;;;3.26;62.21
65880;BME280;52661;51.364;6.054;2023-02-28T10:37:50;102698.56;;;3.46;63.23
65880;BME280;52661;51.364;6.054;2023-02-28T10:43:04;102699.00;;;3.53;63.00
65880;BME280;52661;51.364;6.054;2023-02-28T10:45:31;102701.13;;;3.70;63.66
65880;BME280;52661;51.364;6.054;2023-02-28T10:48:27;102708.88;;;3.90;64.50
65880;BME280;52661;51.364;6.054;2023-02-28T10:50:54;102691.78;;;4.00;61.45
65880;BME280;52661;51.364;6.054;2023-02-28T10:53:25;102686.22;;;4.10;62.00
65880;BME280;52661;51.364;6.054;2023-02-28T11:01:24;102692.16;;;3.61;60.75
65880;BME280;52661;51.364;6.054;2023-02-28T11:03:51;102694.44;;;3.86;60.10
65880;BME280;52661;51.364;6.054;2023-02-28T11:06:29;102686.63;;;3.71;59.62
65880;BME280;52661;51.364;6.054;2023-02-28T11:08:57;102680.38;;;3.24;59.76
65880;BME280;52661;51.364;6.054;2023-02-28T11:11:26;102678.41;;;2.92;60.58
65880;BME280;52661;51.364;6.054;2023-02-28T11:13:54;102674.03;;;3.15;63.15
65880;BME280;52661;51.364;6.054;2023-02-28T11:16:21;102682.88;;;3.53;62.43
65880;BME280;52661;51.364;6.054;2023-02-28T11:18:52;102688.41;;;3.43;60.53
65880;BME280;52661;51.364;6.054;2023-02-28T11:21:30;102684.13;;;3.23;62.03
65880;BME280;52661;51.364;6.054;2023-02-28T11:24:26;102678.91;;;3.13;62.31
65880;BME280;52661;51.364;6.054;2023-02-28T11:26:54;102677.94;;;3.60;61.64
65880;BME280;52661;51.364;6.054;2023-02-28T11:29:33;102673.34;;;3.93;61.70
65880;BME280;52661;51.364;6.054;2023-02-28T11:34:30;102679.47;;;4.26;59.51
65880;BME280;52661;51.364;6.054;2023-02-28T11:36:58;102685.25;;;4.46;61.03
65880;BME280;52661;51.364;6.054;2023-02-28T11:39:25;102676.38;;;4.46;60.23
65880;BME280;52661;51.364;6.054;2023-02-28T11:44:37;102679.97;;;4.41;59.74
65880;BME280;52661;51.364;6.054;2023-02-28T11:52:40;102676.88;;;4.62;57.49
65880;BME280;52661;51.364;6.054;2023-02-28T11:55:21;102675.28;;;4.61;56.71
65880;BME280;52661;51.364;6.054;2023-02-28T11:58:20;102671.00;;;4.73;58.98
65880;BME280;52661;51.364;6.054;2023-02-28T12:06:33;102667.91;;;4.80;58.06
65880;BME280;52661;51.364;6.054;2023-02-28T12:09:31;102671.59;;;4.84;57.12
65880;BME280;52661;51.364;6.054;2023-02-28T12:14:46;102655.25;;;5.16;59.04
65880;BME280;52661;51.364;6.054;2023-02-28T12:17:26;102653.19;;;5.13;57.61
65880;BME280;52661;51.364;6.054;2023-02-28T12:22:43;102656.34;;;5.15;58.41
65880;BME280;52661;51.364;6.054;2023-02-28T12:25:22;102641.41;;;5.09;57.33
65880;BME280;52661;51.364;6.054;2023-02-28T12:27:49;102637.13;;;5.08;56.45
65880;BME280;52661;51.364;6.054;2023-02-28T12:30:30;102639.03;;;5.30;58.49
65880;BME280;52661;51.364;6.054;2023-02-28T12:33:06;102630.72;;;5.62;59.31
65880;BME280;52661;51.364;6.054;2023-02-28T12:35:44;102632.44;;;5.36;56.14
65880;BME280;52661;51.364;6.054;2023-02-28T12:38:25;102624.78;;;5.29;55.71
65880;BME280;52661;51.364;6.054;2023-02-28T12:41:02;102623.56;;;5.35;55.35
65880;BME280;52661;51.364;6.054;2023-02-28T12:43:38;102617.06;;;5.36;55.62
65880;BME280;52661;51.364;6.054;2023-02-28T12:46:30;102615.34;;;5.63;55.11
65880;BME280;52661;51.364;6.054;2023-02-28T12:48:59;102614.19;;;5.55;54.17
65880;BME280;52661;51.364;6.054;2023-02-28T12:51:27;102613.53;;;5.50;54.27
65880;BME280;52661;51.364;6.054;2023-02-28T12:54:31;102606.19;;;5.41;52.76
65880;BME280;52661;51.364;6.054;2023-02-28T13:10:43;102602.28;;;6.09;52.52
65880;BME280;52661;51.364;6.054;2023-02-28T13:13:21;102591.09;;;5.93;51.47
65880;BME280;52661;51.364;6.054;2023-02-28T13:16:08;102593.38;;;6.00;52.30
65880;BME280;52661;51.364;6.054;2023-02-28T13:18:37;102586.69;;;5.98;51.55
65880;BME280;52661;51.364;6.054;2023-02-28T13:21:06;102580.66;;;5.92;51.81
65880;BME280;52661;51.364;6.054;2023-02-28T13:26:12;102567.91;;;6.15;51.81
65880;BME280;52661;51.364;6.054;2023-02-28T13:31:22;102571.25;;;6.29;51.15
65880;BME280;52661;51.364;6.054;2023-02-28T13:38:52;102569.09;;;7.00;51.17
65880;BME280;52661;51.364;6.054;2023-02-28T13:47:18;102575.59;;;7.07;50.92
65880;BME280;52661;51.364;6.054;2023-02-28T14:00:35;102557.66;;;7.11;49.79
65880;BME280;52661;51.364;6.054;2023-02-28T14:05:34;102568.28;;;7.80;49.42
65880;BME280;52661;51.364;6.054;2023-02-28T14:08:05;102553.88;;;7.59;49.14
65880;BME280;52661;51.364;6.054;2023-02-28T14:11:08;102546.84;;;7.11;50.06
65880;BME280;52661;51.364;6.054;2023-02-28T14:19:17;102564.06;;;7.53;49.49
65880;BME280;52661;51.364;6.054;2023-02-28T14:24:46;102545.44;;;7.05;50.66
65880;BME280;52661;51.364;6.054;2023-02-28T14:37:49;102542.69;;;7.77;49.35
65880;BME280;52661;51.364;6.054;2023-02-28T14:40:17;102546.28;;;7.90;48.19
65880;BME280;52661;51.364;6.054;2023-02-28T14:42:55;102539.28;;;7.89;48.59
65880;BME280;52661;51.364;6.054;2023-02-28T14:45:22;102532.69;;;7.23;50.85
65880;BME280;52661;51.364;6.054;2023-02-28T14:47:49;102539.25;;;6.96;49.80
65880;BME280;52661;51.364;6.054;2023-02-28T14:50:23;102529.06;;;6.84;49.83
65880;BME280;52661;51.364;6.054;2023-02-28T14:52:53;102532.84;;;7.18;50.72
65880;BME280;52661;51.364;6.054;2023-02-28T14:55:23;102539.00;;;7.35;50.15
65880;BME280;52661;51.364;6.054;2023-02-28T14:58:00;102541.03;;;7.56;50.55
65880;BME280;52661;51.364;6.054;2023-02-28T15:00:31;102534.00;;;6.91;50.57
65880;BME280;52661;51.364;6.054;2023-02-28T15:02:58;102536.09;;;6.68;50.95
65880;BME280;52661;51.364;6.054;2023-02-28T15:05:28;102520.19;;;7.01;51.92
65880;BME280;52661;51.364;6.054;2023-02-28T15:08:15;102521.13;;;6.88;51.28
65880;BME280;52661;51.364;6.054;2023-02-28T15:10:55;102518.13;;;6.55;51.61
65880;BME280;52661;51.364;6.054;2023-02-28T15:13:23;102519.53;;;6.18;51.96
65880;BME280;52661;51.364;6.054;2023-02-28T15:16:00;102522.06;;;6.23;53.37
65880;BME280;52661;51.364;6.054;2023-02-28T15:18:49;102521.22;;;6.06;53.61
65880;BME280;52661;51.364;6.054;2023-02-28T15:21:25;102533.31;;;6.17;54.39
65880;BME280;52661;51.364;6.054;2023-02-28T15:23:56;102530.00;;;6.28;55.48
65880;BME280;52661;51.364;6.054;2023-02-28T15:26:27;102516.00;;;6.09;55.94